sensor_id;sensor_type;location;lat;lon;timestamp;pressure;altitude;pressure_sealevel;temperature;humidity
50268;BME280;36153;50.960;6.220;2024-03-08T00:01:35;100669.34;;;8.14;48.86
50268;BME280;36153;50.960;6.220;2024-03-08T00:03:36;100668.50;;;8.15;49.03
50268;BME280;36153;50.960;6.220;2024-03-08T00:05:36;100663.25;;;8.12;48.85
50268;BME280;36153;50.960;6.220;2024-03-08T00:07:41;100669.28;;;8.11;49.05
50268;BME280;36153;50.960;6.220;2024-03-08T00:09:41;100657.84;;;8.02;49.13
50268;BME280;36153;50.960;6.220;2024-03-08T00:11:43;100652.59;;;7.99;49.30
50268;BME280;36153;50.960;6.220;2024-03-08T00:13:48;100664.72;;;8.00;49.24
50268;BME280;36153;50.960;6.220;2024-03-08T00:15:48;100658.59;;;7.98;49.28
50268;BME280;36153;50.960;6.220;2024-03-08T00:17:49;100649.00;;;7.94;49.19
50268;BME280;36153;50.960;6.220;2024-03-08T00:19:49;100651.56;;;7.93;49.17
50268;BME280;36153;50.960;6.220;2024-03-08T00:21:50;100654.09;;;7.90;49.28
50268;BME280;36153;50.960;6.220;2024-03-08T00:23:53;100647.16;;;7.90;49.33
50268;BME280;36153;50.960;6.220;2024-03-08T00:25:55;100648.03;;;7.89;49.53
50268;BME280;36153;50.960;6.220;2024-03-08T00:27:57;100642.03;;;7.92;49.41
50268;BME280;36153;50.960;6.220;2024-03-08T00:29:58;100647.16;;;7.90;49.53
50268;BME280;36153;50.960;6.220;2024-03-08T00:31:58;100636.88;;;7.93;49.61
50268;BME280;36153;50.960;6.220;2024-03-08T00:33:58;100639.34;;;7.89;49.61
50268;BME280;36153;50.960;6.220;2024-03-08T00:36:00;100639.31;;;7.87;49.59
50268;BME280;36153;50.960;6.220;2024-03-08T00:38:02;100640.94;;;7.83;49.90
50268;BME280;36153;50.960;6.220;2024-03-08T00:40:12;100634.88;;;7.81;50.06
50268;BME280;36153;50.960;6.220;2024-03-08T00:42:12;100633.03;;;7.77;50.01
50268;BME280;36153;50.960;6.220;2024-03-08T00:44:14;100630.38;;;7.74;50.05
50268;BME280;36153;50.960;6.220;2024-03-08T00:46:14;100631.25;;;7.75;49.95
50268;BME280;36153;50.960;6.220;2024-03-08T00:48:16;100633.69;;;7.68;50.11
50268;BME280;36153;50.960;6.220;2024-03-08T00:50:16;100628.50;;;7.68;50.05
50268;BME280;36153;50.960;6.220;2024-03-08T00:52:18;100625.91;;;7.68;50.10
50268;BME280;36153;50.960;6.220;2024-03-08T00:54:18;100625.13;;;7.71;50.06
50268;BME280;36153;50.960;6.220;2024-03-08T00:56:20;100620.75;;;7.68;50.08
50268;BME280;36153;50.960;6.220;2024-03-08T00:58:21;100618.13;;;7.67;50.08
50268;BME280;36153;50.960;6.220;2024-03-08T01:00:25;100618.84;;;7.61;50.20
50268;BME280;36153;50.960;6.220;2024-03-08T01:02:26;100615.25;;;7.56;50.30
50268;BME280;36153;50.960;6.220;2024-03-08T01:04:27;100624.84;;;7.60;50.47
50268;BME280;36153;50.960;6.220;2024-03-08T01:06:31;100614.47;;;7.60;50.43
50268;BME280;36153;50.960;6.220;2024-03-08T01:08:32;100613.44;;;7.54;50.58
50268;BME280;36153;50.960;6.220;2024-03-08T01:10:32;100620.31;;;7.51;50.56
50268;BME280;36153;50.960;6.220;2024-03-08T01:12:33;100608.16;;;7.49;50.45
50268;BME280;36153;50.960;6.220;2024-03-08T01:14:34;100612.53;;;7.51;50.51
50268;BME280;36153;50.960;6.220;2024-03-08T01:16:35;100605.44;;;7.44;50.48
50268;BME280;36153;50.960;6.220;2024-03-08T01:18:35;100602.00;;;7.45;50.48
50268;BME280;36153;50.960;6.220;2024-03-08T01:20:37;100603.78;;;7.46;50.34
50268;BME280;36153;50.960;6.220;2024-03-08T01:22:38;100603.03;;;7.52;50.40
50268;BME280;36153;50.960;6.220;2024-03-08T01:24:39;100602.97;;;7.49;50.48
50268;BME280;36153;50.960;6.220;2024-03-08T01:26:39;100607.16;;;7.44;50.39
50268;BME280;36153;50.960;6.220;2024-03-08T01:28:39;100594.88;;;7.37;50.37
50268;BME280;36153;50.960;6.220;2024-03-08T01:30:41;100598.31;;;7.35;50.58
50268;BME280;36153;50.960;6.220;2024-03-08T01:32:43;100601.66;;;7.31;50.68
50268;BME280;36153;50.960;6.220;2024-03-08T01:34:44;100596.66;;;7.38;50.57
50268;BME280;36153;50.960;6.220;2024-03-08T01:36:46;100600.91;;;7.35;50.66
50268;BME280;36153;50.960;6.220;2024-03-08T01:38:46;100603.47;;;7.35;50.56
50268;BME280;36153;50.960;6.220;2024-03-08T01:40:48;100600.81;;;7.32;50.48
50268;BME280;36153;50.960;6.220;2024-03-08T01:42:48;100597.28;;;7.30;50.66
50268;BME280;36153;50.960;6.220;2024-03-08T01:44:50;100598.16;;;7.29;50.56
50268;BME280;36153;50.960;6.220;2024-03-08T01:46:52;100594.59;;;7.26;50.59
50268;BME280;36153;50.960;6.220;2024-03-08T01:48:55;100586.78;;;7.24;50.63
50268;BME280;36153;50.960;6.220;2024-03-08T01:50:58;100581.53;;;7.21;50.67
50268;BME280;36153;50.960;6.220;2024-03-08T01:52:58;100582.28;;;7.17;50.70
50268;BME280;36153;50.960;6.220;2024-03-08T01:55:01;100577.94;;;7.16;50.64
50268;BME280;36153;50.960;6.220;2024-03-08T01:57:03;100577.13;;;7.17;50.56
50268;BME280;36153;50.960;6.220;2024-03-08T01:59:03;100569.25;;;7.14;50.49
50268;BME280;36153;50.960;6.220;2024-03-08T02:01:06;100573.41;;;7.07;50.67
50268;BME280;36153;50.960;6.220;2024-03-08T02:03:07;100565.50;;;7.03;50.32
50268;BME280;36153;50.960;6.220;2024-03-08T02:05:07;100571.59;;;7.05;50.62
50268;BME280;36153;50.960;6.220;2024-03-08T02:07:08;100565.50;;;7.03;50.56
50268;BME280;36153;50.960;6.220;2024-03-08T02:09:08;100569.78;;;7.00;50.71
50268;BME280;36153;50.960;6.220;2024-03-08T02:11:09;100563.75;;;7.02;50.74
50268;BME280;36153;50.960;6.220;2024-03-08T02:13:10;100562.72;;;6.95;50.70
50268;BME280;36153;50.960;6.220;2024-03-08T02:15:11;100563.50;;;6.92;51.03
50268;BME280;36153;50.960;6.220;2024-03-08T02:17:11;100558.47;;;6.98;51.01
50268;BME280;36153;50.960;6.220;2024-03-08T02:19:12;100558.41;;;6.95;51.00
50268;BME280;36153;50.960;6.220;2024-03-08T02:21:12;100558.34;;;6.92;51.18
50268;BME280;36153;50.960;6.220;2024-03-08T02:23:14;100554.91;;;6.93;50.95
50268;BME280;36153;50.960;6.220;2024-03-08T02:25:15;100552.06;;;6.84;51.14
50268;BME280;36153;50.960;6.220;2024-03-08T02:27:23;100549.47;;;6.84;51.24
50268;BME280;36153;50.960;6.220;2024-03-08T02:29:25;100550.97;;;6.76;51.24
50268;BME280;36153;50.960;6.220;2024-03-08T02:31:25;100543.28;;;6.79;51.30
50268;BME280;36153;50.960;6.220;2024-03-08T02:33:26;100546.66;;;6.76;51.42
50268;BME280;36153;50.960;6.220;2024-03-08T02:35:27;100541.41;;;6.73;51.54
50268;BME280;36153;50.960;6.220;2024-03-08T02:37:29;100531.09;;;6.75;51.58
50268;BME280;36153;50.960;6.220;2024-03-08T02:39:33;100531.03;;;6.72;51.65
50268;BME280;36153;50.960;6.220;2024-03-08T02:41:33;100538.03;;;6.76;51.54
50268;BME280;36153;50.960;6.220;2024-03-08T02:43:34;100542.47;;;6.80;51.43
50268;BME280;36153;50.960;6.220;2024-03-08T02:45:35;100532.00;;;6.75;51.47
50268;BME280;36153;50.960;6.220;2024-03-08T02:47:36;100526.88;;;6.77;51.62
50268;BME280;36153;50.960;6.220;2024-03-08T02:49:37;100526.03;;;6.78;51.38
50268;BME280;36153;50.960;6.220;2024-03-08T02:51:37;100527.63;;;6.73;51.41
50268;BME280;36153;50.960;6.220;2024-03-08T02:53:39;100523.19;;;6.69;51.70
50268;BME280;36153;50.960;6.220;2024-03-08T02:55:41;100526.53;;;6.64;51.93
50268;BME280;36153;50.960;6.220;2024-03-08T02:57:42;100519.59;;;6.63;51.95
50268;BME280;36153;50.960;6.220;2024-03-08T02:59:44;100515.31;;;6.64;51.96
50268;BME280;36153;50.960;6.220;2024-03-08T03:01:45;100522.22;;;6.65;51.92
50268;BME280;36153;50.960;6.220;2024-03-08T03:03:46;100519.78;;;6.70;51.89
50268;BME280;36153;50.960;6.220;2024-03-08T03:05:48;100524.75;;;6.63;51.92
50268;BME280;36153;50.960;6.220;2024-03-08T03:07:50;100515.31;;;6.64;51.99
50268;BME280;36153;50.960;6.220;2024-03-08T03:09:50;100512.66;;;6.62;52.24
50268;BME280;36153;50.960;6.220;2024-03-08T03:11:52;100510.94;;;6.61;52.09
50268;BME280;36153;50.960;6.220;2024-03-08T03:13:52;100508.38;;;6.63;52.15
50268;BME280;36153;50.960;6.220;2024-03-08T03:15:53;100509.16;;;6.60;52.10
50268;BME280;36153;50.960;6.220;2024-03-08T03:17:54;100505.84;;;6.64;52.06
50268;BME280;36153;50.960;6.220;2024-03-08T03:19:55;100507.38;;;6.58;52.14
50268;BME280;36153;50.960;6.220;2024-03-08T03:21:55;100502.31;;;6.62;52.06
50268;BME280;36153;50.960;6.220;2024-03-08T03:23:57;100503.16;;;6.61;51.98
50268;BME280;36153;50.960;6.220;2024-03-08T03:25:59;100502.16;;;6.56;52.09
50268;BME280;36153;50.960;6.220;2024-03-08T03:28:03;100500.59;;;6.61;52.14
50268;BME280;36153;50.960;6.220;2024-03-08T03:30:05;100495.47;;;6.64;52.21
50268;BME280;36153;50.960;6.220;2024-03-08T03:32:26;100491.97;;;6.62;52.23
50268;BME280;36153;50.960;6.220;2024-03-08T03:34:26;100490.78;;;6.51;52.29
50268;BME280;36153;50.960;6.220;2024-03-08T03:36:27;100496.94;;;6.55;52.38
50268;BME280;36153;50.960;6.220;2024-03-08T03:38:28;100490.09;;;6.57;52.23
50268;BME280;36153;50.960;6.220;2024-03-08T03:40:28;100489.00;;;6.48;52.43
50268;BME280;36153;50.960;6.220;2024-03-08T03:42:31;100488.22;;;6.51;52.28
50268;BME280;36153;50.960;6.220;2024-03-08T03:44:31;100488.22;;;6.51;52.25
50268;BME280;36153;50.960;6.220;2024-03-08T03:46:34;100482.88;;;6.45;52.30
50268;BME280;36153;50.960;6.220;2024-03-08T03:48:34;100484.72;;;6.49;52.51
50268;BME280;36153;50.960;6.220;2024-03-08T03:50:35;100487.31;;;6.49;52.56
50268;BME280;36153;50.960;6.220;2024-03-08T03:52:36;100480.25;;;6.43;52.57
50268;BME280;36153;50.960;6.220;2024-03-08T03:54:36;100481.19;;;6.47;52.56
50268;BME280;36153;50.960;6.220;2024-03-08T03:56:36;100481.75;;;6.35;52.70
50268;BME280;36153;50.960;6.220;2024-03-08T03:58:37;100474.84;;;6.36;52.73
50268;BME280;36153;50.960;6.220;2024-03-08T04:00:37;100473.22;;;6.38;53.07
50268;BME280;36153;50.960;6.220;2024-03-08T04:02:38;100472.47;;;6.42;52.88
50268;BME280;36153;50.960;6.220;2024-03-08T04:04:38;100471.44;;;6.37;52.67
50268;BME280;36153;50.960;6.220;2024-03-08T04:06:40;100479.13;;;6.34;53.01
50268;BME280;36153;50.960;6.220;2024-03-08T04:08:40;100467.94;;;6.35;53.07
50268;BME280;36153;50.960;6.220;2024-03-08T04:10:41;100468.03;;;6.38;52.94
50268;BME280;36153;50.960;6.220;2024-03-08T04:12:45;100476.47;;;6.30;52.89
50268;BME280;36153;50.960;6.220;2024-03-08T04:14:45;100469.56;;;6.31;53.08
50268;BME280;36153;50.960;6.220;2024-03-08T04:16:45;100472.03;;;6.26;53.06
50268;BME280;36153;50.960;6.220;2024-03-08T04:18:48;100464.31;;;6.28;52.88
50268;BME280;36153;50.960;6.220;2024-03-08T04:20:49;100460.84;;;6.27;53.02
50268;BME280;36153;50.960;6.220;2024-03-08T04:22:50;100462.47;;;6.24;53.05
50268;BME280;36153;50.960;6.220;2024-03-08T04:24:50;100462.63;;;6.30;53.03
50268;BME280;36153;50.960;6.220;2024-03-08T04:26:51;100463.41;;;6.27;52.86
50268;BME280;36153;50.960;6.220;2024-03-08T04:28:51;100459.19;;;6.29;52.89
50268;BME280;36153;50.960;6.220;2024-03-08T04:30:53;100455.59;;;6.24;52.84
50268;BME280;36153;50.960;6.220;2024-03-08T04:32:54;100453.81;;;6.23;52.92
50268;BME280;36153;50.960;6.220;2024-03-08T04:34:55;100453.09;;;6.27;52.95
50268;BME280;36153;50.960;6.220;2024-03-08T04:36:57;100457.59;;;6.35;52.96
50268;BME280;36153;50.960;6.220;2024-03-08T04:38:58;100456.59;;;6.29;52.81
50268;BME280;36153;50.960;6.220;2024-03-08T04:40:59;100450.38;;;6.23;52.83
50268;BME280;36153;50.960;6.220;2024-03-08T04:43:02;100445.25;;;6.24;53.00
50268;BME280;36153;50.960;6.220;2024-03-08T04:45:03;100453.97;;;6.28;52.93
50268;BME280;36153;50.960;6.220;2024-03-08T04:47:04;100445.22;;;6.23;52.87
50268;BME280;36153;50.960;6.220;2024-03-08T04:49:05;100445.13;;;6.20;52.97
50268;BME280;36153;50.960;6.220;2024-03-08T04:51:07;100444.34;;;6.22;52.81
50268;BME280;36153;50.960;6.220;2024-03-08T04:53:07;100445.22;;;6.23;52.92
50268;BME280;36153;50.960;6.220;2024-03-08T04:55:08;100437.94;;;6.09;53.25
50268;BME280;36153;50.960;6.220;2024-03-08T04:57:09;100435.31;;;6.08;53.29
50268;BME280;36153;50.960;6.220;2024-03-08T04:59:09;100430.28;;;6.12;53.16
50268;BME280;36153;50.960;6.220;2024-03-08T05:01:10;100422.59;;;6.15;53.19
50268;BME280;36153;50.960;6.220;2024-03-08T05:03:12;100426.81;;;6.12;53.05
50268;BME280;36153;50.960;6.220;2024-03-08T05:05:12;100426.88;;;6.15;53.11
50268;BME280;36153;50.960;6.220;2024-03-08T05:07:13;100427.75;;;6.14;53.01
50268;BME280;36153;50.960;6.220;2024-03-08T05:09:13;100426.97;;;6.17;52.87
50268;BME280;36153;50.960;6.220;2024-03-08T05:11:14;100426.81;;;6.12;52.95
50268;BME280;36153;50.960;6.220;2024-03-08T05:13:14;100431.94;;;6.10;53.24
50268;BME280;36153;50.960;6.220;2024-03-08T05:15:14;100422.47;;;6.11;53.03
50268;BME280;36153;50.960;6.220;2024-03-08T05:17:16;100417.22;;;6.08;53.09
50268;BME280;36153;50.960;6.220;2024-03-08T05:19:18;100415.38;;;6.04;53.22
50268;BME280;36153;50.960;6.220;2024-03-08T05:21:19;100414.53;;;6.05;53.20
50268;BME280;36153;50.960;6.220;2024-03-08T05:23:21;100409.28;;;6.02;53.23
50268;BME280;36153;50.960;6.220;2024-03-08T05:25:22;100416.00;;;5.96;53.39
50268;BME280;36153;50.960;6.220;2024-03-08T05:27:23;100407.53;;;6.01;53.50
50268;BME280;36153;50.960;6.220;2024-03-08T05:29:23;100413.72;;;6.06;53.41
50268;BME280;36153;50.960;6.220;2024-03-08T05:31:23;100418.66;;;5.98;53.23
50268;BME280;36153;50.960;6.220;2024-03-08T05:33:24;100409.22;;;5.98;53.17
50268;BME280;36153;50.960;6.220;2024-03-08T05:35:24;100414.91;;;5.88;53.60
50268;BME280;36153;50.960;6.220;2024-03-08T05:37:24;100413.41;;;5.96;53.70
50268;BME280;36153;50.960;6.220;2024-03-08T05:39:25;100403.81;;;5.92;53.59
50268;BME280;36153;50.960;6.220;2024-03-08T05:41:25;100404.75;;;5.94;53.68
50268;BME280;36153;50.960;6.220;2024-03-08T05:43:26;100407.34;;;5.94;53.67
50268;BME280;36153;50.960;6.220;2024-03-08T05:45:26;100408.13;;;5.92;53.55
50268;BME280;36153;50.960;6.220;2024-03-08T05:47:27;100406.75;;;5.74;53.79
50268;BME280;36153;50.960;6.220;2024-03-08T05:49:27;100398.13;;;5.74;54.05
50268;BME280;36153;50.960;6.220;2024-03-08T05:51:28;100402.59;;;5.79;54.33
50268;BME280;36153;50.960;6.220;2024-03-08T05:53:29;100398.22;;;5.77;54.31
50268;BME280;36153;50.960;6.220;2024-03-08T05:55:32;100399.19;;;5.80;54.30
50268;BME280;36153;50.960;6.220;2024-03-08T05:57:35;100400.09;;;5.82;54.30
50268;BME280;36153;50.960;6.220;2024-03-08T05:59:40;100394.97;;;5.84;54.31
50268;BME280;36153;50.960;6.220;2024-03-08T06:01:41;100394.91;;;5.81;54.14
50268;BME280;36153;50.960;6.220;2024-03-08T06:04:04;100398.56;;;5.89;54.14
50268;BME280;36153;50.960;6.220;2024-03-08T06:06:05;100395.06;;;5.87;54.43
50268;BME280;36153;50.960;6.220;2024-03-08T06:08:06;100400.22;;;5.87;54.26
50268;BME280;36153;50.960;6.220;2024-03-08T06:10:11;100392.47;;;5.87;54.30
50268;BME280;36153;50.960;6.220;2024-03-08T06:12:14;100395.16;;;5.90;54.32
50268;BME280;36153;50.960;6.220;2024-03-08T06:14:20;100400.13;;;5.84;54.58
50268;BME280;36153;50.960;6.220;2024-03-08T06:16:20;100393.50;;;5.92;54.41
50268;BME280;36153;50.960;6.220;2024-03-08T06:18:21;100394.31;;;5.91;54.66
50268;BME280;36153;50.960;6.220;2024-03-08T06:20:21;100390.22;;;5.98;54.43
50268;BME280;36153;50.960;6.220;2024-03-08T06:22:26;100382.53;;;6.00;54.47
50268;BME280;36153;50.960;6.220;2024-03-08T06:24:26;100393.88;;;6.05;54.34
50268;BME280;36153;50.960;6.220;2024-03-08T06:26:27;100387.03;;;6.07;54.51
50268;BME280;36153;50.960;6.220;2024-03-08T06:28:28;100380.34;;;6.15;54.07
50268;BME280;36153;50.960;6.220;2024-03-08T06:30:29;100384.44;;;6.07;54.35
50268;BME280;36153;50.960;6.220;2024-03-08T06:32:29;100380.22;;;6.09;54.34
50268;BME280;36153;50.960;6.220;2024-03-08T06:34:32;100377.00;;;6.18;54.36
50268;BME280;36153;50.960;6.220;2024-03-08T06:36:34;100374.75;;;6.30;53.93
50268;BME280;36153;50.960;6.220;2024-03-08T06:38:35;100380.97;;;6.37;53.57
50268;BME280;36153;50.960;6.220;2024-03-08T06:40:36;100366.44;;;6.42;53.59
50268;BME280;36153;50.960;6.220;2024-03-08T06:42:36;100371.47;;;6.37;53.48
50268;BME280;36153;50.960;6.220;2024-03-08T06:44:37;100362.09;;;6.41;53.50
50268;BME280;36153;50.960;6.220;2024-03-08T06:46:38;100363.75;;;6.39;53.61
50268;BME280;36153;50.960;6.220;2024-03-08T06:48:39;100369.50;;;6.27;53.73
50268;BME280;36153;50.960;6.220;2024-03-08T06:50:39;100374.28;;;6.45;53.53
50268;BME280;36153;50.960;6.220;2024-03-08T06:52:39;100365.00;;;6.53;53.59
50268;BME280;36153;50.960;6.220;2024-03-08T06:54:40;100369.56;;;6.63;53.52
50268;BME280;36153;50.960;6.220;2024-03-08T06:56:41;100362.81;;;6.69;53.04
50268;BME280;36153;50.960;6.220;2024-03-08T06:58:42;100372.09;;;6.60;52.98
50268;BME280;36153;50.960;6.220;2024-03-08T07:00:43;100364.53;;;6.68;53.10
50268;BME280;36153;50.960;6.220;2024-03-08T07:02:44;100370.47;;;6.64;53.31
50268;BME280;36153;50.960;6.220;2024-03-08T07:04:50;100374.13;;;6.72;53.08
50268;BME280;36153;50.960;6.220;2024-03-08T07:06:51;100365.81;;;6.86;52.86
50268;BME280;36153;50.960;6.220;2024-03-08T07:08:54;100362.09;;;6.74;52.96
50268;BME280;36153;50.960;6.220;2024-03-08T07:10:54;100357.63;;;6.69;53.01
50268;BME280;36153;50.960;6.220;2024-03-08T07:12:54;100366.84;;;6.92;52.73
50268;BME280;36153;50.960;6.220;2024-03-08T07:14:55;100355.81;;;7.01;52.12
50268;BME280;36153;50.960;6.220;2024-03-08T07:16:55;100361.88;;;7.02;52.21
50268;BME280;36153;50.960;6.220;2024-03-08T07:18:56;100357.22;;;6.87;52.42
50268;BME280;36153;50.960;6.220;2024-03-08T07:20:59;100353.88;;;6.91;52.47
50268;BME280;36153;50.960;6.220;2024-03-08T07:23:00;100346.78;;;6.83;52.38
50268;BME280;36153;50.960;6.220;2024-03-08T07:25:00;100362.78;;;7.04;51.79
50268;BME280;36153;50.960;6.220;2024-03-08T07:27:19;100357.34;;;7.29;51.53
50268;BME280;36153;50.960;6.220;2024-03-08T07:29:20;100353.63;;;7.18;51.33
50268;BME280;36153;50.960;6.220;2024-03-08T07:31:20;100347.09;;;7.34;51.75
50268;BME280;36153;50.960;6.220;2024-03-08T07:33:35;100349.22;;;7.54;51.55
50268;BME280;36153;50.960;6.220;2024-03-08T07:35:35;100332.63;;;7.44;51.14
50268;BME280;36153;50.960;6.220;2024-03-08T07:37:37;100340.50;;;7.50;51.42
50268;BME280;36153;50.960;6.220;2024-03-08T07:39:37;100331.13;;;7.55;51.16
50268;BME280;36153;50.960;6.220;2024-03-08T07:41:39;100328.53;;;7.55;51.55
50268;BME280;36153;50.960;6.220;2024-03-08T07:43:42;100335.16;;;7.41;51.50
50268;BME280;36153;50.960;6.220;2024-03-08T07:45:42;100331.47;;;7.72;50.92
50268;BME280;36153;50.960;6.220;2024-03-08T07:47:43;100332.06;;;7.57;51.25
50268;BME280;36153;50.960;6.220;2024-03-08T07:49:44;100321.03;;;7.67;50.79
50268;BME280;36153;50.960;6.220;2024-03-08T07:51:44;100319.31;;;7.69;50.57
50268;BME280;36153;50.960;6.220;2024-03-08T07:53:45;100314.25;;;7.74;50.64
50268;BME280;36153;50.960;6.220;2024-03-08T07:55:45;100310.81;;;7.75;50.45
50268;BME280;36153;50.960;6.220;2024-03-08T07:57:45;100309.47;;;7.96;50.43
50268;BME280;36153;50.960;6.220;2024-03-08T07:59:47;100309.59;;;8.02;50.24
50268;BME280;36153;50.960;6.220;2024-03-08T08:01:48;100305.19;;;7.96;50.59
50268;BME280;36153;50.960;6.220;2024-03-08T08:03:48;100304.41;;;8.00;50.38
50268;BME280;36153;50.960;6.220;2024-03-08T08:05:49;100299.47;;;8.14;49.89
50268;BME280;36153;50.960;6.220;2024-03-08T08:07:49;100300.31;;;8.13;50.33
50268;BME280;36153;50.960;6.220;2024-03-08T08:09:53;100291.97;;;8.31;49.57
50268;BME280;36153;50.960;6.220;2024-03-08T08:11:55;100295.69;;;8.46;50.00
50268;BME280;36153;50.960;6.220;2024-03-08T08:13:56;100284.88;;;8.21;49.69
50268;BME280;36153;50.960;6.220;2024-03-08T08:15:56;100275.19;;;8.11;49.80
50268;BME280;36153;50.960;6.220;2024-03-08T08:17:57;100272.97;;;8.32;49.86
50268;BME280;36153;50.960;6.220;2024-03-08T08:19:57;100281.78;;;8.41;50.22
50268;BME280;36153;50.960;6.220;2024-03-08T08:21:58;100274.50;;;8.21;49.60
50268;BME280;36153;50.960;6.220;2024-03-08T08:23:58;100278.47;;;8.48;49.66
50268;BME280;36153;50.960;6.220;2024-03-08T08:26:00;100274.94;;;8.46;49.57
50268;BME280;36153;50.960;6.220;2024-03-08T08:28:03;100271.72;;;8.59;49.67
50268;BME280;36153;50.960;6.220;2024-03-08T08:30:05;100276.78;;;8.53;49.05
50268;BME280;36153;50.960;6.220;2024-03-08T08:32:08;100263.22;;;8.69;49.35
50268;BME280;36153;50.960;6.220;2024-03-08T08:34:12;100259.09;;;8.82;49.01
50268;BME280;36153;50.960;6.220;2024-03-08T08:36:15;100259.94;;;8.80;49.13
50268;BME280;36153;50.960;6.220;2024-03-08T08:38:18;100259.84;;;8.75;49.77
50268;BME280;36153;50.960;6.220;2024-03-08T08:40:20;100259.22;;;8.92;49.24
50268;BME280;36153;50.960;6.220;2024-03-08T08:42:22;100244.66;;;9.04;48.94
50268;BME280;36153;50.960;6.220;2024-03-08T08:44:22;100247.41;;;9.14;48.70
50268;BME280;36153;50.960;6.220;2024-03-08T08:46:23;100248.84;;;8.92;49.09
50268;BME280;36153;50.960;6.220;2024-03-08T08:48:23;100243.81;;;9.04;48.89
50268;BME280;36153;50.960;6.220;2024-03-08T08:50:28;100237.13;;;9.21;48.24
50268;BME280;36153;50.960;6.220;2024-03-08T08:52:31;100235.53;;;9.34;48.33
50268;BME280;36153;50.960;6.220;2024-03-08T08:54:32;100234.63;;;9.32;48.63
50268;BME280;36153;50.960;6.220;2024-03-08T08:56:33;100234.47;;;9.18;48.67
50268;BME280;36153;50.960;6.220;2024-03-08T08:58:33;100234.84;;;9.48;48.77
50268;BME280;36153;50.960;6.220;2024-03-08T09:00:34;100228.63;;;9.35;47.76
50268;BME280;36153;50.960;6.220;2024-03-08T09:02:38;100226.66;;;9.17;48.05
50268;BME280;36153;50.960;6.220;2024-03-08T09:04:38;100229.53;;;9.37;47.59
50268;BME280;36153;50.960;6.220;2024-03-08T09:06:39;100221.22;;;9.70;47.56
50268;BME280;36153;50.960;6.220;2024-03-08T09:08:42;100222.91;;;9.65;47.39
50268;BME280;36153;50.960;6.220;2024-03-08T09:10:42;100214.44;;;9.85;47.35
50268;BME280;36153;50.960;6.220;2024-03-08T09:12:43;100209.19;;;9.80;47.20
50268;BME280;36153;50.960;6.220;2024-03-08T09:14:43;100214.97;;;9.53;47.84
50268;BME280;36153;50.960;6.220;2024-03-08T09:16:44;100212.34;;;9.50;48.29
50268;BME280;36153;50.960;6.220;2024-03-08T09:18:44;100202.34;;;9.88;47.02
50268;BME280;36153;50.960;6.220;2024-03-08T09:20:45;100204.19;;;10.03;47.19
50268;BME280;36153;50.960;6.220;2024-03-08T09:22:47;100194.66;;;10.01;46.48
50268;BME280;36153;50.960;6.220;2024-03-08T09:24:47;100189.34;;;9.87;47.29
50268;BME280;36153;50.960;6.220;2024-03-08T09:26:49;100190.22;;;9.92;47.55
50268;BME280;36153;50.960;6.220;2024-03-08T09:28:49;100181.91;;;10.33;46.68
50268;BME280;36153;50.960;6.220;2024-03-08T09:30:49;100172.34;;;10.32;46.55
50268;BME280;36153;50.960;6.220;2024-03-08T09:32:50;100177.75;;;10.54;46.12
50268;BME280;36153;50.960;6.220;2024-03-08T09:34:51;100175.16;;;10.54;46.21
50268;BME280;36153;50.960;6.220;2024-03-08T09:36:51;100176.91;;;10.58;46.05
50268;BME280;36153;50.960;6.220;2024-03-08T09:38:52;100162.91;;;10.40;46.06
50268;BME280;36153;50.960;6.220;2024-03-08T09:40:53;100163.00;;;10.59;45.74
50268;BME280;36153;50.960;6.220;2024-03-08T09:42:53;100157.69;;;10.40;46.16
50268;BME280;36153;50.960;6.220;2024-03-08T09:44:55;100161.31;;;10.61;45.98
50268;BME280;36153;50.960;6.220;2024-03-08T09:47:00;100145.81;;;10.89;45.49
50268;BME280;36153;50.960;6.220;2024-03-08T09:49:02;100144.13;;;10.94;46.39
50268;BME280;36153;50.960;6.220;2024-03-08T09:51:05;100149.34;;;11.03;45.04
50268;BME280;36153;50.960;6.220;2024-03-08T09:53:07;100137.16;;;10.98;44.88
50268;BME280;36153;50.960;6.220;2024-03-08T09:55:10;100134.66;;;11.22;44.79
50268;BME280;36153;50.960;6.220;2024-03-08T09:57:13;100139.81;;;11.08;44.64
50268;BME280;36153;50.960;6.220;2024-03-08T09:59:15;100131.22;;;11.37;44.58
50268;BME280;36153;50.960;6.220;2024-03-08T10:01:27;100126.00;;;11.47;45.08
50268;BME280;36153;50.960;6.220;2024-03-08T10:03:29;100128.69;;;11.84;44.75
50268;BME280;36153;50.960;6.220;2024-03-08T10:05:32;100137.38;;;11.79;43.75
50268;BME280;36153;50.960;6.220;2024-03-08T10:07:34;100126.91;;;11.67;43.81
50268;BME280;36153;50.960;6.220;2024-03-08T10:09:34;100126.00;;;11.47;43.63
50268;BME280;36153;50.960;6.220;2024-03-08T10:11:37;100130.41;;;11.72;44.09
50268;BME280;36153;50.960;6.220;2024-03-08T10:13:39;100122.63;;;12.03;43.50
50268;BME280;36153;50.960;6.220;2024-03-08T10:15:40;100118.25;;;12.35;42.72
50268;BME280;36153;50.960;6.220;2024-03-08T10:17:40;100117.38;;;12.06;43.69
50268;BME280;36153;50.960;6.220;2024-03-08T10:19:51;100119.13;;;11.97;43.15
50268;BME280;36153;50.960;6.220;2024-03-08T10:21:54;100114.75;;;11.78;43.43
50268;BME280;36153;50.960;6.220;2024-03-08T10:23:56;100118.25;;;12.15;43.29
50268;BME280;36153;50.960;6.220;2024-03-08T10:25:56;100110.38;;;12.39;43.31
50268;BME280;36153;50.960;6.220;2024-03-08T10:27:59;100110.44;;;12.22;42.92
50268;BME280;36153;50.960;6.220;2024-03-08T10:30:00;100097.41;;;12.05;42.92
50268;BME280;36153;50.960;6.220;2024-03-08T10:32:01;100101.75;;;12.11;42.38
50268;BME280;36153;50.960;6.220;2024-03-08T10:34:02;100103.47;;;12.31;42.32
50268;BME280;36153;50.960;6.220;2024-03-08T10:36:02;100097.28;;;12.64;41.47
50268;BME280;36153;50.960;6.220;2024-03-08T10:38:04;100101.66;;;12.51;41.77
50268;BME280;36153;50.960;6.220;2024-03-08T10:40:09;100095.50;;;12.66;42.29
50268;BME280;36153;50.960;6.220;2024-03-08T10:42:16;100087.50;;;13.06;42.39
50268;BME280;36153;50.960;6.220;2024-03-08T10:44:32;100091.81;;;13.13;41.19